createdAt,value
2022-12-03T00:03:02.722Z,1.76
2022-12-03T00:08:04.495Z,1.79
2022-12-03T00:13:05.996Z,1.89
2022-12-03T00:18:07.520Z,1.98
2022-12-03T00:23:09.030Z,2.07
2022-12-03T00:28:10.565Z,2.08
2022-12-03T00:33:12.011Z,1.99
2022-12-03T00:38:13.872Z,2.01
2022-12-03T00:43:15.335Z,2.00
2022-12-03T00:48:16.786Z,2.14
2022-12-03T00:53:18.270Z,2.28
2022-12-03T00:58:19.821Z,2.19
2022-12-03T01:03:21.326Z,2.20
2022-12-03T01:08:22.827Z,2.26
2022-12-03T01:13:24.351Z,2.25
2022-12-03T01:18:25.869Z,2.20
2022-12-03T01:23:27.312Z,2.27
2022-12-03T01:28:29.408Z,2.38
2022-12-03T01:33:30.921Z,2.41
2022-12-03T01:38:32.393Z,2.37
2022-12-03T01:43:33.924Z,2.29
2022-12-03T01:48:37.814Z,2.27
2022-12-03T01:53:39.327Z,2.35
2022-12-03T01:58:41.390Z,2.41
2022-12-03T02:03:44.069Z,2.43
2022-12-03T02:08:47.054Z,2.50
2022-12-03T02:13:52.732Z,2.50
2022-12-03T02:18:54.242Z,2.49
2022-12-03T02:24:11.725Z,2.50
2022-12-03T02:29:13.452Z,2.65
2022-12-03T02:34:53.996Z,2.63
2022-12-03T02:39:59.060Z,2.80
2022-12-03T02:45:05.678Z,2.85
2022-12-03T02:50:09.715Z,2.78
2022-12-03T02:55:13.391Z,2.75
2022-12-03T03:00:16.188Z,2.76
2022-12-03T03:05:21.467Z,2.70
2022-12-03T03:10:23.750Z,2.68
2022-12-03T03:15:25.521Z,2.74
2022-12-03T03:20:27.063Z,2.77
2022-12-03T03:25:28.588Z,2.67
2022-12-03T03:30:30.391Z,2.61
2022-12-03T03:35:31.984Z,2.45
2022-12-03T03:40:33.628Z,2.41
2022-12-03T03:45:35.269Z,2.47
2022-12-03T03:50:37.124Z,2.55
2022-12-03T03:55:39.912Z,2.53
2022-12-03T04:00:44.010Z,2.50
2022-12-03T04:05:46.664Z,2.44
2022-12-03T04:11:07.166Z,2.30
2022-12-03T04:16:08.745Z,2.48
2022-12-03T04:21:34.556Z,2.50
2022-12-03T04:26:54.880Z,2.54
2022-12-03T04:32:15.239Z,2.51
2022-12-03T04:37:16.896Z,2.49
2022-12-03T04:42:18.377Z,2.48
2022-12-03T04:47:21.544Z,2.47
2022-12-03T04:52:23.084Z,2.44
2022-12-03T04:57:24.539Z,2.41
2022-12-03T05:02:26.045Z,2.53
2022-12-03T05:07:27.637Z,2.41
2022-12-03T05:12:29.177Z,2.30
2022-12-03T05:17:30.810Z,2.23
2022-12-03T05:22:32.308Z,2.32
2022-12-03T05:27:34.702Z,2.27
2022-12-03T05:32:36.215Z,2.29
2022-12-03T05:37:37.782Z,2.28
2022-12-03T05:42:54.555Z,2.19
2022-12-03T05:47:57.637Z,2.21
2022-12-03T05:52:59.473Z,2.27
2022-12-03T05:58:01.077Z,2.38
2022-12-03T06:03:02.849Z,2.45
2022-12-03T06:08:04.561Z,2.50
2022-12-03T06:13:06.150Z,2.54
2022-12-03T06:18:07.607Z,2.46
2022-12-03T06:23:09.146Z,2.34
2022-12-03T06:28:10.626Z,2.19
2022-12-03T06:33:12.153Z,2.29
2022-12-03T06:38:13.619Z,2.33
2022-12-03T06:43:15.170Z,2.31
2022-12-03T06:48:16.725Z,2.41
2022-12-03T06:53:18.226Z,2.39
2022-12-03T06:58:19.804Z,2.18
2022-12-03T07:03:21.403Z,2.05
2022-12-03T07:08:22.869Z,2.01
2022-12-03T07:13:24.371Z,2.13
2022-12-03T07:18:25.886Z,2.16
2022-12-03T07:23:27.390Z,2.11
2022-12-03T07:28:28.911Z,2.10
2022-12-03T07:33:30.606Z,2.14
2022-12-03T07:38:32.122Z,2.18
2022-12-03T07:43:33.632Z,2.10
2022-12-03T07:48:35.127Z,2.05
2022-12-03T07:53:36.641Z,1.95
2022-12-03T07:58:38.208Z,1.88
2022-12-03T08:03:39.702Z,2.01
2022-12-03T08:08:41.272Z,2.11
2022-12-03T08:13:42.961Z,2.09
2022-12-03T08:18:45.425Z,1.99
2022-12-03T08:23:47.107Z,1.86
2022-12-03T08:28:48.917Z,1.90
2022-12-03T08:33:53.178Z,1.90
2022-12-03T08:39:02.089Z,1.85
2022-12-03T08:44:21.167Z,2.13
2022-12-03T08:49:22.806Z,2.29
2022-12-03T08:54:25.937Z,2.30
2022-12-03T08:59:32.153Z,1.84
2022-12-03T09:04:42.852Z,1.87
2022-12-03T09:09:44.364Z,1.92
2022-12-03T09:14:45.817Z,2.09
2022-12-03T09:19:47.297Z,1.99
2022-12-03T09:24:48.798Z,1.80
2022-12-03T09:29:50.791Z,1.47
2022-12-03T09:34:52.759Z,1.49
2022-12-03T09:39:54.416Z,1.67
2022-12-03T09:44:56.223Z,1.80
2022-12-03T09:49:58.508Z,1.63
2022-12-03T09:55:05.548Z,1.52
2022-12-03T10:00:15.737Z,1.64
2022-12-03T10:05:20.079Z,1.77
2022-12-03T10:10:25.122Z,1.68
2022-12-03T10:15:26.849Z,1.79
2022-12-03T10:20:28.386Z,1.66
2022-12-03T10:25:29.862Z,1.54
2022-12-03T10:30:31.573Z,1.48
2022-12-03T10:35:39.230Z,1.30
2022-12-03T10:40:40.769Z,1.40
2022-12-03T10:45:43.164Z,1.38
2022-12-03T10:50:53.251Z,1.44
2022-12-03T10:55:59.561Z,1.40
2022-12-03T11:01:03.592Z,1.48
2022-12-03T11:06:05.253Z,1.46
2022-12-03T11:11:13.335Z,1.47
2022-12-03T11:16:40.761Z,1.33
2022-12-03T11:22:07.228Z,1.39
2022-12-03T11:27:19.121Z,1.52
2022-12-03T11:32:38.944Z,1.29
2022-12-03T11:37:40.724Z,1.22
2022-12-03T11:42:42.822Z,1.30
2022-12-03T11:48:02.883Z,1.00
2022-12-03T11:53:18.912Z,1.09
2022-12-03T11:58:29.599Z,1.25
2022-12-03T12:03:51.464Z,1.04
2022-12-03T12:08:53.045Z,1.09
2022-12-03T12:14:01.345Z,0.97
2022-12-03T12:19:29.134Z,0.97
2022-12-03T12:24:43.191Z,0.88
2022-12-03T12:29:50.519Z,0.69
2022-12-03T12:35:00.375Z,0.51
2022-12-03T12:40:11.607Z,0.52
2022-12-03T12:45:27.576Z,0.75
2022-12-03T12:50:31.728Z,0.61
2022-12-03T12:55:33.251Z,0.71
2022-12-03T13:00:34.783Z,0.90
2022-12-03T13:05:42.338Z,1.19
2022-12-03T13:10:43.866Z,1.07
2022-12-03T13:15:49.354Z,0.67
2022-12-03T13:20:50.953Z,0.58
2022-12-03T13:26:07.417Z,0.52
2022-12-03T13:31:34.015Z,0.70
2022-12-03T13:36:41.307Z,0.67
2022-12-03T13:42:01.694Z,0.79
2022-12-03T13:47:13.937Z,0.85
2022-12-03T13:52:19.574Z,0.84
2022-12-03T13:57:23.786Z,0.83
2022-12-03T14:02:25.372Z,0.97
2022-12-03T14:07:26.928Z,0.99
2022-12-03T14:12:33.529Z,0.90
2022-12-03T14:17:35.091Z,0.94
2022-12-03T14:22:39.461Z,0.87
2022-12-03T14:27:41.000Z,0.94
2022-12-03T14:32:42.533Z,0.87
2022-12-03T14:37:44.112Z,0.75
2022-12-03T14:42:45.679Z,0.92
2022-12-03T14:47:47.208Z,0.72
2022-12-03T14:52:48.701Z,0.75
2022-12-03T14:57:50.276Z,0.86
2022-12-03T15:02:54.240Z,0.70
2022-12-03T15:07:57.928Z,0.59
2022-12-03T15:12:59.528Z,0.77
2022-12-03T15:18:01.053Z,0.70
2022-12-03T15:23:02.517Z,0.24
2022-12-03T15:28:05.425Z,0.29
2022-12-03T15:33:06.961Z,0.49
2022-12-03T15:38:09.413Z,0.77
2022-12-03T15:43:11.792Z,0.72
2022-12-03T15:48:13.822Z,0.75
2022-12-03T15:53:15.387Z,0.87
2022-12-03T15:58:16.839Z,0.70
2022-12-03T16:03:18.656Z,0.45
2022-12-03T16:08:20.216Z,0.52
2022-12-03T16:13:21.739Z,0.57
2022-12-03T16:18:23.219Z,0.41
2022-12-03T16:23:24.727Z,0.79
2022-12-03T16:28:41.306Z,0.62
2022-12-03T16:33:42.819Z,0.45
2022-12-03T16:38:44.358Z,0.52
2022-12-03T16:43:48.376Z,0.40
2022-12-03T16:48:50.169Z,0.48
2022-12-03T16:53:51.826Z,0.45
2022-12-03T16:58:53.317Z,0.30
2022-12-03T17:03:54.860Z,0.25
2022-12-03T17:08:56.377Z,0.23
2022-12-03T17:13:57.916Z,0.03
2022-12-03T17:18:59.401Z,0.24
2022-12-03T17:24:00.939Z,0.17
2022-12-03T17:29:02.414Z,0.16
2022-12-03T17:34:03.892Z,0.14
2022-12-03T17:39:05.366Z,-0.09
2022-12-03T17:44:10.673Z,-0.26
2022-12-03T17:49:13.638Z,-0.29
2022-12-03T17:54:15.170Z,-0.26
2022-12-03T17:59:16.713Z,-0.12
2022-12-03T18:04:18.251Z,-0.28
2022-12-03T18:09:19.848Z,0.01
2022-12-03T18:14:21.385Z,0.11
2022-12-03T18:19:23.012Z,0.05
2022-12-03T18:24:25.240Z,-0.14
2022-12-03T18:29:26.754Z,-0.11
2022-12-03T18:34:28.271Z,-0.16
2022-12-03T18:39:36.130Z,-0.09
2022-12-03T18:44:37.491Z,0.09
2022-12-03T18:49:39.215Z,0.16
2022-12-03T18:54:40.787Z,-0.07
2022-12-03T18:59:42.391Z,-0.35
2022-12-03T19:04:44.185Z,-0.23
2022-12-03T19:09:45.698Z,-0.05
2022-12-03T19:14:48.226Z,-0.14
2022-12-03T19:19:49.728Z,-0.41
2022-12-03T19:24:51.270Z,-0.17
2022-12-03T19:29:52.925Z,0.02
2022-12-03T19:34:54.715Z,-0.06
2022-12-03T19:39:56.560Z,-0.11
2022-12-03T19:44:58.355Z,-0.21
2022-12-03T19:49:59.867Z,-0.22
2022-12-03T19:55:02.068Z,0.02
2022-12-03T20:00:05.372Z,0.04
2022-12-03T20:05:07.509Z,-0.07
2022-12-03T20:10:09.345Z,-0.10
2022-12-03T20:15:12.404Z,-0.09
2022-12-03T20:20:13.987Z,-0.07
2022-12-03T20:25:15.499Z,-0.15
2022-12-03T20:30:17.068Z,-0.31
2022-12-03T20:35:18.697Z,-0.30
2022-12-03T20:40:20.170Z,-0.08
2022-12-03T20:45:21.641Z,-0.17
2022-12-03T20:50:23.182Z,-0.13
2022-12-03T20:55:24.691Z,-0.23
2022-12-03T21:00:26.289Z,-0.16
2022-12-03T21:05:27.868Z,-0.33
2022-12-03T21:10:44.784Z,-0.28
2022-12-03T21:15:46.424Z,-0.73
2022-12-03T21:20:47.954Z,-0.80
2022-12-03T21:25:49.536Z,-0.73
2022-12-03T21:30:54.608Z,-0.69
2022-12-03T21:35:56.707Z,-0.82
2022-12-03T21:40:59.112Z,-0.76
2022-12-03T21:46:05.234Z,-0.28
2022-12-03T21:51:26.620Z,-1.13
2022-12-03T21:56:30.819Z,-0.71
2022-12-03T22:01:32.470Z,-0.74
2022-12-03T22:06:34.045Z,-0.70
2022-12-03T22:11:35.596Z,-0.79
2022-12-03T22:16:37.630Z,-0.89
2022-12-03T22:21:39.228Z,-0.83
2022-12-03T22:26:40.843Z,-0.83
2022-12-03T22:31:42.364Z,-1.01
2022-12-03T22:36:43.900Z,-0.98
2022-12-03T22:41:45.375Z,-0.93
2022-12-03T22:46:46.979Z,-0.85
2022-12-03T22:51:48.690Z,-0.88
2022-12-03T22:56:50.192Z,-1.12
2022-12-03T23:01:51.721Z,-0.95
2022-12-03T23:06:53.235Z,-0.79
2022-12-03T23:11:54.841Z,-0.89
2022-12-03T23:16:56.360Z,-1.11
2022-12-03T23:21:58.099Z,-1.05
2022-12-03T23:26:59.559Z,-1.02
2022-12-03T23:32:01.095Z,-0.83
2022-12-03T23:37:02.653Z,-1.03
2022-12-03T23:42:04.169Z,-0.91
2022-12-03T23:47:06.160Z,-0.90
2022-12-03T23:52:07.767Z,-0.95
2022-12-03T23:57:09.309Z,-0.96
